LYBE/BEG METAR and TAF weather

Enter ICAO airport designator
Station Type Date Time Source
LYBE METAR 2024/06/13 01:00 UTC NOAA

LYBE 130100Z 29005KT 9999 -RA SCT013 BKN040 17/15 Q1016 NOSIG


Station Type Date Time Source
LYBE Decoded METAR 2024/06/13 01:00 UTC NOAA

Beograd / Surcin, Serbia and Montenegro (LYBE) 44-49N 020-17E 99M
Jun 12, 2024 - 09:00 PM EDT / 2024.06.13 0100 UTC
Wind: from the WNW (290 degrees) at 6 MPH (5 KT):0
Visibility: greater than 7 mile(s):0
Sky conditions: mostly cloudy
Weather: light rain
Temperature: 62 F (17 C)
Dew Point: 59 F (15 C)
Relative Humidity: 88%
Pressure (altimeter): 30.00 in. Hg (1016 hPa)
ob: LYBE 130100Z 29005KT 9999 -RA SCT013 BKN040 17/15 Q1016 NOSIG
cycle: 1

Station Type Date Time Source
LYBE TAF 2024/06/12 18:21 UTC NOAA